createdAt,value
2017-11-04T01:36:22.829Z,4.61
2017-11-04T01:36:23.405Z,4.62
2017-11-04T01:36:24.002Z,4.64
2017-11-04T01:36:24.601Z,4.67
2017-11-04T01:36:25.203Z,4.61
2017-11-04T01:36:25.800Z,4.67
2017-11-04T01:36:26.401Z,4.64
2017-11-04T01:36:27.000Z,4.64
2017-11-04T01:37:21.506Z,4.61
2017-11-04T01:37:22.078Z,4.65
2017-11-04T01:37:22.680Z,4.70
2017-11-04T01:37:23.287Z,4.61
2017-11-04T01:37:23.877Z,4.61
2017-11-04T01:37:24.478Z,4.62
2017-11-04T01:37:25.077Z,4.67
2017-11-04T01:37:25.676Z,4.61
2017-11-04T01:38:19.160Z,4.58
2017-11-04T01:38:19.729Z,4.65
2017-11-04T01:38:20.330Z,4.72
2017-11-04T01:38:20.932Z,4.64
2017-11-04T01:38:21.528Z,4.65
2017-11-04T01:38:22.128Z,4.67
2017-11-04T01:38:22.728Z,4.64
2017-11-04T01:38:23.329Z,4.69
2017-11-04T01:39:16.818Z,4.58
2017-11-04T01:39:17.386Z,4.62
2017-11-04T01:39:17.982Z,4.55
2017-11-04T01:39:18.582Z,4.57
2017-11-04T01:39:19.183Z,4.61
2017-11-04T01:39:19.785Z,4.59
2017-11-04T01:39:20.381Z,4.59
2017-11-04T01:39:20.983Z,4.55
2017-11-04T01:40:14.972Z,4.55
2017-11-04T01:40:15.550Z,4.69
2017-11-04T01:40:16.147Z,4.58
2017-11-04T01:40:16.747Z,4.55
2017-11-04T01:40:17.346Z,4.69
2017-11-04T01:40:17.945Z,4.64
2017-11-04T01:40:18.549Z,4.70
2017-11-04T01:41:13.032Z,4.55
2017-11-04T01:41:13.606Z,4.61
2017-11-04T01:41:14.213Z,4.59
2017-11-04T01:41:14.814Z,4.61
2017-11-04T01:41:15.408Z,4.70
2017-11-04T01:41:16.008Z,4.73
2017-11-04T01:41:16.608Z,4.55
2017-11-04T01:41:17.206Z,4.65
2017-11-04T01:42:10.684Z,4.59
2017-11-04T01:42:11.264Z,4.65
2017-11-04T01:42:11.864Z,4.64
2017-11-04T01:42:12.462Z,4.67
2017-11-04T01:42:13.060Z,4.65
2017-11-04T01:42:13.659Z,4.67
2017-11-04T01:42:14.259Z,4.57
2017-11-04T01:42:14.859Z,4.55
2017-11-04T01:43:09.359Z,4.61
2017-11-04T01:43:09.941Z,4.61
2017-11-04T01:43:10.536Z,4.58
2017-11-04T01:43:11.135Z,4.69
2017-11-04T01:43:11.741Z,4.67
2017-11-04T01:43:12.334Z,4.70
2017-11-04T01:43:12.941Z,4.58
2017-11-04T01:43:13.535Z,4.65
2017-11-04T01:44:08.038Z,4.65
2017-11-04T01:44:08.611Z,4.69
2017-11-04T01:44:09.213Z,4.59
2017-11-04T01:44:09.811Z,4.69
2017-11-04T01:44:10.413Z,4.67
2017-11-04T01:44:11.020Z,4.69
2017-11-04T01:44:11.613Z,4.73
2017-11-04T01:44:12.230Z,4.69
2017-11-04T01:45:05.687Z,4.65
2017-11-04T01:45:06.263Z,4.69
2017-11-04T01:45:06.862Z,4.64
2017-11-04T01:45:07.463Z,4.69
2017-11-04T01:45:08.064Z,4.75
2017-11-04T01:45:08.664Z,4.73
2017-11-04T01:45:09.271Z,4.70
2017-11-04T01:45:09.862Z,4.65
2017-11-04T01:46:03.341Z,4.72
2017-11-04T01:46:03.916Z,4.73
2017-11-04T01:46:04.517Z,4.76
2017-11-04T01:46:05.122Z,4.70
2017-11-04T01:46:05.714Z,4.70
2017-11-04T01:46:06.316Z,4.69
2017-11-04T01:46:06.916Z,4.69
2017-11-04T01:46:07.514Z,4.70
2017-11-04T01:47:00.997Z,4.67
2017-11-04T01:47:01.569Z,4.79
2017-11-04T01:47:02.169Z,4.83
2017-11-04T01:47:02.767Z,4.77
2017-11-04T01:47:03.369Z,4.83
2017-11-04T01:47:03.971Z,4.83
2017-11-04T01:47:04.567Z,4.84
2017-11-04T01:47:05.168Z,4.70
2017-11-04T01:47:59.161Z,4.83
2017-11-04T01:47:59.738Z,4.77
2017-11-04T01:48:00.330Z,4.83
2017-11-04T01:48:00.930Z,4.83
2017-11-04T01:48:01.532Z,4.76
2017-11-04T01:48:02.130Z,4.79
2017-11-04T01:48:02.732Z,4.84
2017-11-04T01:48:56.298Z,4.88
2017-11-04T01:48:56.875Z,4.88
2017-11-04T01:48:57.475Z,4.86
2017-11-04T01:48:58.072Z,4.92
2017-11-04T01:48:58.683Z,4.91
2017-11-04T01:48:59.277Z,4.86
2017-11-04T01:48:59.874Z,4.88
2017-11-04T01:49:00.477Z,4.84
2017-11-04T01:49:54.971Z,4.88
2017-11-04T01:49:55.550Z,4.94
2017-11-04T01:49:56.146Z,4.92
2017-11-04T01:49:56.745Z,4.88
2017-11-04T01:49:57.348Z,4.88
2017-11-04T01:49:57.946Z,4.86
2017-11-04T01:49:58.545Z,4.84
2017-11-04T01:49:59.145Z,4.88
2017-11-04T01:50:53.646Z,4.89
2017-11-04T01:50:54.220Z,4.95
2017-11-04T01:50:54.821Z,4.94
2017-11-04T01:50:55.423Z,4.91
2017-11-04T01:50:56.021Z,4.94
2017-11-04T01:50:56.620Z,4.95
2017-11-04T01:50:57.221Z,4.99
2017-11-04T01:50:57.821Z,4.94
2017-11-04T01:51:51.299Z,4.95
2017-11-04T01:51:51.874Z,4.95
2017-11-04T01:51:52.477Z,4.98
2017-11-04T01:51:53.074Z,4.98
2017-11-04T01:51:53.681Z,5.01
2017-11-04T01:51:54.273Z,4.98
2017-11-04T01:51:54.874Z,4.96
2017-11-04T01:51:55.474Z,4.96
2017-11-04T01:52:49.974Z,5.02
2017-11-04T01:52:50.549Z,4.99
2017-11-04T01:52:51.149Z,4.96
2017-11-04T01:52:51.748Z,4.99
2017-11-04T01:52:52.349Z,4.96
2017-11-04T01:52:52.949Z,5.02
2017-11-04T01:52:53.549Z,5.04
2017-11-04T01:52:54.149Z,4.98
2017-11-04T01:53:47.628Z,5.12
2017-11-04T01:53:48.208Z,4.99
2017-11-04T01:53:48.801Z,4.98
2017-11-04T01:53:49.402Z,4.99
2017-11-04T01:53:50.001Z,4.99
2017-11-04T01:53:50.600Z,5.04
2017-11-04T01:53:51.201Z,4.99
2017-11-04T01:53:51.800Z,4.98
2017-11-04T01:54:45.279Z,4.94
2017-11-04T01:54:45.854Z,5.01
2017-11-04T01:54:46.455Z,4.96
2017-11-04T01:54:47.056Z,4.96
2017-11-04T01:54:47.653Z,5.13
2017-11-04T01:54:48.253Z,5.09
2017-11-04T01:54:48.853Z,5.16
2017-11-04T01:54:49.456Z,4.96
2017-11-04T01:55:43.954Z,5.16
2017-11-04T01:55:44.531Z,5.17
2017-11-04T01:55:45.129Z,5.12
2017-11-04T01:55:45.727Z,5.07
2017-11-04T01:55:46.328Z,5.07
2017-11-04T01:55:46.928Z,5.09
2017-11-04T01:55:47.527Z,5.16
2017-11-04T01:55:48.127Z,5.16
2017-11-04T01:56:41.606Z,5.10
2017-11-04T01:56:42.181Z,5.14
2017-11-04T01:56:42.780Z,5.13
2017-11-04T01:56:43.381Z,5.09
2017-11-04T01:56:43.981Z,5.10
2017-11-04T01:56:44.580Z,5.05
2017-11-04T01:56:45.181Z,5.10
2017-11-04T01:56:45.781Z,5.17
2017-11-04T01:57:40.282Z,5.16
2017-11-04T01:57:40.855Z,5.14
2017-11-04T01:57:41.456Z,5.13
2017-11-04T01:57:42.056Z,5.12
2017-11-04T01:57:42.654Z,5.13
2017-11-04T01:57:43.255Z,5.12
2017-11-04T01:57:43.855Z,5.13
2017-11-04T01:57:44.454Z,5.16
2017-11-04T01:58:38.956Z,5.16
2017-11-04T01:58:39.534Z,5.22
2017-11-04T01:58:40.131Z,5.20
2017-11-04T01:58:40.732Z,5.14
2017-11-04T01:58:41.332Z,5.14
2017-11-04T01:58:41.932Z,5.19
2017-11-04T01:58:42.530Z,5.12
2017-11-04T01:58:43.133Z,5.12
2017-11-04T01:59:36.610Z,5.23
2017-11-04T01:59:37.184Z,5.27
2017-11-04T01:59:37.784Z,5.12
2017-11-04T01:59:38.384Z,5.14
2017-11-04T01:59:38.991Z,5.25
2017-11-04T01:59:39.583Z,5.20
2017-11-04T01:59:40.182Z,5.22
2017-11-04T01:59:40.784Z,5.23
2017-11-04T02:00:35.285Z,5.20
2017-11-04T02:00:35.859Z,5.20
2017-11-04T02:00:36.458Z,5.20
2017-11-04T02:00:37.059Z,5.17
2017-11-04T02:00:37.659Z,5.25
2017-11-04T02:00:38.258Z,5.23
2017-11-04T02:00:38.857Z,5.23
2017-11-04T02:00:39.459Z,5.19
2017-11-04T02:01:32.936Z,5.34
2017-11-04T02:01:33.512Z,5.30
2017-11-04T02:01:34.110Z,5.22
2017-11-04T02:01:34.718Z,5.30
2017-11-04T02:01:35.312Z,5.34
2017-11-04T02:01:35.911Z,5.34
2017-11-04T02:01:36.511Z,5.27
2017-11-04T02:01:37.111Z,5.22
2017-11-04T02:02:31.614Z,5.31
2017-11-04T02:02:32.187Z,5.32
2017-11-04T02:02:32.787Z,5.27
2017-11-04T02:02:33.386Z,5.30
2017-11-04T02:02:33.986Z,5.28
2017-11-04T02:02:34.587Z,5.31
2017-11-04T02:02:35.185Z,5.23
2017-11-04T02:02:35.790Z,5.30
2017-11-04T02:03:29.781Z,5.23
2017-11-04T02:03:30.353Z,5.31
2017-11-04T02:03:30.949Z,5.23
2017-11-04T02:03:31.549Z,5.27
2017-11-04T02:03:32.151Z,5.40
2017-11-04T02:03:32.750Z,5.32
2017-11-04T02:03:33.350Z,5.35
2017-11-04T02:04:26.813Z,5.27
2017-11-04T02:04:27.388Z,5.30
2017-11-04T02:04:27.990Z,5.30
2017-11-04T02:04:28.588Z,5.32
2017-11-04T02:04:29.188Z,5.35
2017-11-04T02:04:29.786Z,5.30
2017-11-04T02:04:30.392Z,5.30
2017-11-04T02:04:30.987Z,5.30
2017-11-04T02:05:25.489Z,5.41
2017-11-04T02:05:26.063Z,5.48
2017-11-04T02:05:26.662Z,5.37
2017-11-04T02:05:27.262Z,5.32
2017-11-04T02:05:27.862Z,5.35
2017-11-04T02:05:28.462Z,5.35
2017-11-04T02:05:29.062Z,5.31
2017-11-04T02:05:29.662Z,5.40
2017-11-04T02:07:31.971Z,5.31
2017-11-04T02:07:32.545Z,5.37
2017-11-04T02:07:33.145Z,5.38
2017-11-04T02:07:33.742Z,5.31
2017-11-04T02:07:34.341Z,5.43
2017-11-04T02:07:34.943Z,5.38
2017-11-04T02:07:35.542Z,5.40
2017-11-04T02:07:36.141Z,5.43
2017-11-04T02:07:36.742Z,5.34
2017-11-04T02:07:37.341Z,5.48
2017-11-04T02:07:37.941Z,5.37
2017-11-04T02:07:38.540Z,5.43
2017-11-04T02:08:32.581Z,5.43
2017-11-04T02:08:33.151Z,5.48
2017-11-04T02:08:33.750Z,5.48
2017-11-04T02:08:34.349Z,5.50
2017-11-04T02:08:34.949Z,5.43
2017-11-04T02:08:35.550Z,5.34
2017-11-04T02:08:36.148Z,5.40
2017-11-04T02:08:36.751Z,5.41
2017-11-04T02:09:30.226Z,5.35
2017-11-04T02:09:30.801Z,5.45
2017-11-04T02:09:31.408Z,5.41
2017-11-04T02:09:32.002Z,5.43
2017-11-04T02:09:32.601Z,5.40
2017-11-04T02:09:33.201Z,5.46
2017-11-04T02:09:33.800Z,5.48
2017-11-04T02:09:34.401Z,5.43
2017-11-04T02:10:27.878Z,5.45
2017-11-04T02:10:28.453Z,5.41
2017-11-04T02:10:29.054Z,5.49
2017-11-04T02:10:29.653Z,5.46
2017-11-04T02:10:30.253Z,5.40
2017-11-04T02:10:30.853Z,5.49
2017-11-04T02:10:31.455Z,5.46
2017-11-04T02:10:32.053Z,5.41
2017-11-04T02:11:25.532Z,5.41
2017-11-04T02:11:26.105Z,5.48
2017-11-04T02:11:26.705Z,5.50
2017-11-04T02:11:27.305Z,5.50
2017-11-04T02:11:27.904Z,5.50
2017-11-04T02:11:28.505Z,5.57
2017-11-04T02:11:29.106Z,5.48
2017-11-04T02:11:29.704Z,5.50
2017-11-04T02:12:23.182Z,5.50
2017-11-04T02:12:23.758Z,5.45
2017-11-04T02:12:24.357Z,5.52
2017-11-04T02:12:24.956Z,5.52
2017-11-04T02:12:25.556Z,5.50
2017-11-04T02:12:26.156Z,5.50
2017-11-04T02:12:26.757Z,5.48
2017-11-04T02:12:27.355Z,5.48
2017-11-04T02:13:20.832Z,5.50
2017-11-04T02:13:21.409Z,5.48
2017-11-04T02:13:22.009Z,5.41
2017-11-04T02:13:22.609Z,5.53
2017-11-04T02:13:23.209Z,5.52
2017-11-04T02:13:23.807Z,5.52
2017-11-04T02:13:24.407Z,5.43
2017-11-04T02:13:25.008Z,5.56
2017-11-04T02:14:19.509Z,5.48
2017-11-04T02:14:20.082Z,5.48
2017-11-04T02:14:20.682Z,5.56
2017-11-04T02:14:21.283Z,5.50
2017-11-04T02:14:21.883Z,5.53
2017-11-04T02:14:22.482Z,5.55
2017-11-04T02:14:23.084Z,5.53
2017-11-04T02:14:23.682Z,5.56
2017-11-04T02:15:18.186Z,5.55
2017-11-04T02:15:18.765Z,5.52
2017-11-04T02:15:19.359Z,5.50
2017-11-04T02:15:19.959Z,5.55
2017-11-04T02:15:20.559Z,5.53
2017-11-04T02:15:21.168Z,5.45
2017-11-04T02:15:21.758Z,5.50
2017-11-04T02:15:22.361Z,5.41
2017-11-04T02:16:16.859Z,5.49
2017-11-04T02:16:17.435Z,5.43
2017-11-04T02:16:18.037Z,5.52
2017-11-04T02:16:18.635Z,5.46
2017-11-04T02:16:19.235Z,5.56
2017-11-04T02:16:19.835Z,5.50
2017-11-04T02:16:20.434Z,5.48
2017-11-04T02:16:21.035Z,5.53
2017-11-04T02:17:15.536Z,5.53
2017-11-04T02:17:16.110Z,5.50
2017-11-04T02:17:16.709Z,5.56
2017-11-04T02:17:17.309Z,5.46
2017-11-04T02:17:17.910Z,5.45
2017-11-04T02:17:18.511Z,5.56
2017-11-04T02:17:19.108Z,5.48
2017-11-04T02:17:19.708Z,5.60
2017-11-04T02:18:13.188Z,5.48
2017-11-04T02:18:13.763Z,5.53
2017-11-04T02:18:14.362Z,5.45
2017-11-04T02:18:14.963Z,5.53
2017-11-04T02:18:15.562Z,5.56
2017-11-04T02:18:16.162Z,5.55
2017-11-04T02:18:16.762Z,5.55
2017-11-04T02:18:17.366Z,5.49
2017-11-04T02:19:10.841Z,5.55
2017-11-04T02:19:11.414Z,5.55
2017-11-04T02:19:12.014Z,5.53
2017-11-04T02:19:12.614Z,5.55
2017-11-04T02:19:13.214Z,5.53
2017-11-04T02:19:13.813Z,5.56
2017-11-04T02:19:14.414Z,5.53
2017-11-04T02:19:15.013Z,5.56
2017-11-04T02:20:09.520Z,5.56
2017-11-04T02:20:10.091Z,5.52
2017-11-04T02:20:10.689Z,5.56
2017-11-04T02:20:11.292Z,5.63
2017-11-04T02:20:11.887Z,5.52
2017-11-04T02:20:12.488Z,5.57
2017-11-04T02:20:13.087Z,5.55
2017-11-04T02:20:13.686Z,5.57
2017-11-04T02:21:07.166Z,5.59
2017-11-04T02:21:07.742Z,5.59
2017-11-04T02:21:08.342Z,5.59
2017-11-04T02:21:08.942Z,5.60
2017-11-04T02:21:09.546Z,5.57
2017-11-04T02:21:10.145Z,5.57
2017-11-04T02:21:10.743Z,5.55
2017-11-04T02:21:11.342Z,5.53
2017-11-04T02:22:05.843Z,5.60
2017-11-04T02:22:06.417Z,5.59
2017-11-04T02:22:07.016Z,5.59
2017-11-04T02:22:07.616Z,5.57
2017-11-04T02:22:08.216Z,5.64
2017-11-04T02:22:08.817Z,5.56
2017-11-04T02:22:09.415Z,5.63
2017-11-04T02:22:10.021Z,5.55
2017-11-04T02:23:04.521Z,5.60
2017-11-04T02:23:05.092Z,5.60
2017-11-04T02:23:05.691Z,5.59
2017-11-04T02:23:06.292Z,5.60
2017-11-04T02:23:06.895Z,5.57
2017-11-04T02:23:07.491Z,5.63
2017-11-04T02:23:08.089Z,5.60
2017-11-04T02:23:08.689Z,5.57
2017-11-04T02:24:02.171Z,5.60
2017-11-04T02:24:02.743Z,5.60
2017-11-04T02:24:03.344Z,5.60
2017-11-04T02:24:03.943Z,5.64
2017-11-04T02:24:04.543Z,5.66
2017-11-04T02:24:05.142Z,5.63
2017-11-04T02:24:05.743Z,5.60
2017-11-04T02:24:06.346Z,5.64
2017-11-04T02:25:00.847Z,5.60
2017-11-04T02:25:01.420Z,5.74
2017-11-04T02:25:02.020Z,5.74
2017-11-04T02:25:02.622Z,5.73
2017-11-04T02:25:03.219Z,5.66
2017-11-04T02:25:03.820Z,5.71
2017-11-04T02:25:04.418Z,5.73
2017-11-04T02:25:05.020Z,5.73
2017-11-04T02:25:58.498Z,5.57
2017-11-04T02:25:59.096Z,5.67
2017-11-04T02:25:59.671Z,5.64
2017-11-04T02:26:00.276Z,5.74
2017-11-04T02:26:00.874Z,5.74
2017-11-04T02:26:01.471Z,5.68
2017-11-04T02:26:02.072Z,5.66
2017-11-04T02:26:02.671Z,5.67
2017-11-04T02:26:56.149Z,5.75
2017-11-04T02:26:56.723Z,5.78
2017-11-04T02:26:57.323Z,5.81
2017-11-04T02:26:57.923Z,5.66
2017-11-04T02:26:58.523Z,5.75
2017-11-04T02:26:59.124Z,5.73
2017-11-04T02:26:59.722Z,5.71
2017-11-04T02:27:00.323Z,5.78
2017-11-04T02:27:54.824Z,5.78
2017-11-04T02:27:55.399Z,5.64
2017-11-04T02:27:55.998Z,5.77
2017-11-04T02:27:56.597Z,5.73
2017-11-04T02:27:57.198Z,5.66
2017-11-04T02:27:57.798Z,5.77
2017-11-04T02:27:58.396Z,5.71
2017-11-04T02:27:59.002Z,5.60
2017-11-04T02:28:53.500Z,5.71
2017-11-04T02:28:54.074Z,5.67
2017-11-04T02:28:54.675Z,5.73
2017-11-04T02:28:55.277Z,5.74
2017-11-04T02:28:55.873Z,5.64
2017-11-04T02:28:56.474Z,5.55
2017-11-04T02:28:57.073Z,5.67
2017-11-04T02:28:57.674Z,5.77
2017-11-04T02:29:51.156Z,5.81
2017-11-04T02:29:51.728Z,5.77
2017-11-04T02:29:52.330Z,5.77
2017-11-04T02:29:52.926Z,5.68
2017-11-04T02:29:53.526Z,5.68
2017-11-04T02:29:54.126Z,5.70
2017-11-04T02:29:54.726Z,5.81
2017-11-04T02:29:55.325Z,5.74
2017-11-04T02:30:49.315Z,5.74
2017-11-04T02:30:49.894Z,5.82
2017-11-04T02:30:50.490Z,5.77
2017-11-04T02:30:51.089Z,5.77
2017-11-04T02:30:51.688Z,5.75
2017-11-04T02:30:52.289Z,5.82
2017-11-04T02:30:52.891Z,5.85
2017-11-04T02:31:46.354Z,5.75
2017-11-04T02:31:46.932Z,5.82
2017-11-04T02:31:47.527Z,5.74
2017-11-04T02:31:48.127Z,5.71
2017-11-04T02:31:48.726Z,5.70
2017-11-04T02:31:49.327Z,5.70
2017-11-04T02:31:49.928Z,5.73
2017-11-04T02:31:50.529Z,5.74
2017-11-04T02:32:44.011Z,5.77
2017-11-04T02:32:44.581Z,5.73
2017-11-04T02:32:45.180Z,5.71
2017-11-04T02:32:45.779Z,5.73
2017-11-04T02:32:46.379Z,5.70
2017-11-04T02:32:46.978Z,5.74
2017-11-04T02:32:47.577Z,5.67
2017-11-04T02:32:48.179Z,5.74
2017-11-04T02:33:42.680Z,5.74
2017-11-04T02:33:43.255Z,5.78
2017-11-04T02:33:43.861Z,5.75
2017-11-04T02:33:44.453Z,5.71
2017-11-04T02:33:45.053Z,5.75
2017-11-04T02:33:45.654Z,5.74
2017-11-04T02:33:46.253Z,5.71
2017-11-04T02:33:46.854Z,5.70
2017-11-04T02:50:29.385Z,5.50
2017-11-04T02:50:29.952Z,5.46
2017-11-04T02:50:30.555Z,5.50
2017-11-04T02:50:31.151Z,5.49
2017-11-04T02:50:31.752Z,5.48
2017-11-04T02:50:32.351Z,5.48
2017-11-04T02:50:32.959Z,5.53
2017-11-04T02:50:33.551Z,5.52
2017-11-04T02:51:28.055Z,5.46
2017-11-04T02:51:28.645Z,5.48
2017-11-04T02:51:29.227Z,5.38
2017-11-04T02:51:29.827Z,5.50
2017-11-04T02:51:30.426Z,5.49
2017-11-04T02:51:31.026Z,5.43
2017-11-04T02:51:31.629Z,5.40
2017-11-04T02:51:32.227Z,5.48
2017-11-04T02:52:26.729Z,5.45
2017-11-04T02:52:27.310Z,5.32
2017-11-04T02:52:27.904Z,5.43
2017-11-04T02:52:28.502Z,5.50
2017-11-04T02:52:29.103Z,5.45
2017-11-04T02:52:29.704Z,5.43
2017-11-04T02:52:30.302Z,5.43
2017-11-04T02:52:30.902Z,5.41
2017-11-04T02:53:24.381Z,5.35
2017-11-04T02:53:24.957Z,5.50
2017-11-04T02:53:25.556Z,5.45
2017-11-04T02:53:26.157Z,5.48
2017-11-04T02:53:26.756Z,5.35
2017-11-04T02:53:27.359Z,5.50
2017-11-04T02:53:27.957Z,5.48
2017-11-04T02:53:28.555Z,5.48
2017-11-04T02:54:23.058Z,5.40
2017-11-04T02:54:23.631Z,5.35
2017-11-04T02:54:24.232Z,5.48
2017-11-04T02:54:24.832Z,5.35
2017-11-04T02:54:25.432Z,5.37
2017-11-04T02:54:26.033Z,5.37
2017-11-04T02:54:26.634Z,5.34
2017-11-04T02:54:27.230Z,5.43
2017-11-04T02:55:20.709Z,5.35
2017-11-04T02:55:21.285Z,5.40
2017-11-04T02:55:21.884Z,5.45
2017-11-04T02:55:22.485Z,5.34
2017-11-04T02:55:23.085Z,5.34
2017-11-04T02:55:23.685Z,5.35
2017-11-04T02:55:24.284Z,5.40
2017-11-04T02:55:24.885Z,5.45
2017-11-04T02:56:18.367Z,5.43
2017-11-04T02:56:18.936Z,5.37
2017-11-04T02:56:19.538Z,5.40
2017-11-04T02:56:20.136Z,5.35
2017-11-04T02:56:20.737Z,5.34
2017-11-04T02:56:21.335Z,5.37
2017-11-04T02:56:21.935Z,5.34
2017-11-04T02:56:22.535Z,5.34
2017-11-04T02:57:17.037Z,5.40
2017-11-04T02:57:17.612Z,5.43
2017-11-04T02:57:18.212Z,5.34
2017-11-04T02:57:18.811Z,5.31
2017-11-04T02:57:19.412Z,5.48
2017-11-04T02:57:20.012Z,5.38
2017-11-04T02:57:20.611Z,5.35
2017-11-04T02:57:21.210Z,5.35
2017-11-04T02:58:15.714Z,5.37
2017-11-04T02:58:16.289Z,5.41
2017-11-04T02:58:16.894Z,5.34
2017-11-04T02:58:17.489Z,5.41
2017-11-04T02:58:18.089Z,5.35
2017-11-04T02:58:18.687Z,5.35
2017-11-04T02:58:19.293Z,5.37
2017-11-04T02:58:19.887Z,5.40
2017-11-04T02:59:13.365Z,5.35
2017-11-04T02:59:13.941Z,5.31
2017-11-04T02:59:14.540Z,5.34
2017-11-04T02:59:15.139Z,5.40
2017-11-04T02:59:15.740Z,5.40
2017-11-04T02:59:16.339Z,5.31
2017-11-04T02:59:16.940Z,5.35
2017-11-04T02:59:17.539Z,5.40
2017-11-04T03:00:11.018Z,5.38
2017-11-04T03:00:11.593Z,5.45
2017-11-04T03:00:12.191Z,5.40
2017-11-04T03:00:12.793Z,5.37
2017-11-04T03:00:13.397Z,5.40
2017-11-04T03:00:13.994Z,5.35
2017-11-04T03:00:14.592Z,5.41
2017-11-04T03:00:15.192Z,5.45
2017-11-04T03:01:08.669Z,5.40
2017-11-04T03:01:09.245Z,5.43
2017-11-04T03:01:09.844Z,5.45
2017-11-04T03:01:10.443Z,5.48
2017-11-04T03:01:11.043Z,5.38
2017-11-04T03:01:11.644Z,5.46
2017-11-04T03:01:12.243Z,5.48
2017-11-04T03:01:12.843Z,5.34
2017-11-04T03:02:07.349Z,5.41
2017-11-04T03:02:07.920Z,5.38
2017-11-04T03:02:08.519Z,5.45
2017-11-04T03:02:09.118Z,5.45
2017-11-04T03:02:09.719Z,5.35
2017-11-04T03:02:10.318Z,5.43
2017-11-04T03:02:10.917Z,5.41
2017-11-04T03:02:11.518Z,5.37
2017-11-04T03:03:05.000Z,5.41
2017-11-04T03:03:05.573Z,5.32
2017-11-04T03:03:06.172Z,5.49
2017-11-04T03:03:06.776Z,5.45
2017-11-04T03:03:07.373Z,5.48
2017-11-04T03:03:07.971Z,5.46
2017-11-04T03:03:08.570Z,5.48
2017-11-04T03:03:09.172Z,5.49
2017-11-04T03:04:02.649Z,5.43
2017-11-04T03:04:03.224Z,5.48
2017-11-04T03:04:03.822Z,5.43
2017-11-04T03:04:04.427Z,5.38
2017-11-04T03:04:05.028Z,5.52
2017-11-04T03:04:05.621Z,5.43
2017-11-04T03:04:06.222Z,5.34
2017-11-04T03:04:06.822Z,5.37
2017-11-04T03:05:01.324Z,5.43
2017-11-04T03:05:01.898Z,5.48
2017-11-04T03:05:02.499Z,5.43
2017-11-04T03:05:03.098Z,5.45
2017-11-04T03:05:03.698Z,5.46
2017-11-04T03:05:04.297Z,5.46
2017-11-04T03:05:04.899Z,5.45
2017-11-04T03:05:05.497Z,5.37
2017-11-04T03:06:00.002Z,5.34
2017-11-04T03:06:00.574Z,5.45
2017-11-04T03:06:01.173Z,5.46
2017-11-04T03:06:01.780Z,5.41
2017-11-04T03:06:02.374Z,5.43
2017-11-04T03:06:02.973Z,5.46
2017-11-04T03:06:03.572Z,5.50
2017-11-04T03:06:04.172Z,5.43
2017-11-04T03:06:58.673Z,5.48
2017-11-04T03:06:59.253Z,5.45
2017-11-04T03:06:59.860Z,5.50
2017-11-04T03:07:00.456Z,5.45
2017-11-04T03:07:01.048Z,5.46
2017-11-04T03:07:01.649Z,5.46
2017-11-04T03:07:02.249Z,5.50
2017-11-04T03:07:02.849Z,5.49
2017-11-04T03:07:56.327Z,5.48
2017-11-04T03:07:56.903Z,5.46
2017-11-04T03:07:57.503Z,5.49
2017-11-04T03:07:58.102Z,5.50
2017-11-04T03:07:58.701Z,5.38
2017-11-04T03:07:59.301Z,5.48
2017-11-04T03:07:59.902Z,5.50
2017-11-04T03:08:00.502Z,5.46
2017-11-04T03:08:55.002Z,5.53
2017-11-04T03:08:55.578Z,5.53
2017-11-04T03:08:56.178Z,5.55
2017-11-04T03:08:56.776Z,5.52
2017-11-04T03:08:57.379Z,5.55
2017-11-04T03:08:57.976Z,5.45
2017-11-04T03:08:58.575Z,5.53
2017-11-04T03:08:59.177Z,5.50
2017-11-04T03:09:52.657Z,5.46
2017-11-04T03:09:53.230Z,5.46
2017-11-04T03:09:53.831Z,5.46
2017-11-04T03:09:54.429Z,5.41
2017-11-04T03:09:55.030Z,5.48
2017-11-04T03:09:55.630Z,5.52
2017-11-04T03:09:56.229Z,5.48
2017-11-04T03:09:56.829Z,5.59
2017-11-04T03:10:51.329Z,5.52
2017-11-04T03:10:51.904Z,5.59
2017-11-04T03:10:52.504Z,5.56
2017-11-04T03:10:53.103Z,5.57
2017-11-04T03:10:53.703Z,5.53
2017-11-04T03:10:54.302Z,5.57
2017-11-04T03:10:54.906Z,5.49
2017-11-04T03:10:55.507Z,5.56
2017-11-04T03:11:50.005Z,5.56
2017-11-04T03:11:50.580Z,5.66
2017-11-04T03:11:51.180Z,5.53
2017-11-04T03:11:51.779Z,5.57
2017-11-04T03:11:52.379Z,5.56
2017-11-04T03:11:52.978Z,5.53
2017-11-04T03:11:53.580Z,5.56
2017-11-04T03:11:54.179Z,5.56
2017-11-04T03:12:48.681Z,5.63
2017-11-04T03:12:49.255Z,5.64
2017-11-04T03:12:49.854Z,5.55
2017-11-04T03:12:50.462Z,5.60
2017-11-04T03:12:51.054Z,5.63
2017-11-04T03:12:51.654Z,5.63
2017-11-04T03:12:52.254Z,5.64
2017-11-04T03:12:52.852Z,5.60
2017-11-04T03:13:46.334Z,5.57
2017-11-04T03:13:46.908Z,5.63
2017-11-04T03:13:47.508Z,5.57
2017-11-04T03:13:48.109Z,5.57
2017-11-04T03:13:48.708Z,5.63
2017-11-04T03:13:49.308Z,5.66
2017-11-04T03:13:49.907Z,5.63
2017-11-04T03:13:50.510Z,5.57
2017-11-04T03:14:43.984Z,5.70
2017-11-04T03:14:44.559Z,5.70
2017-11-04T03:14:45.161Z,5.67
2017-11-04T03:14:45.759Z,5.67
2017-11-04T03:14:46.359Z,5.64
2017-11-04T03:14:46.959Z,5.66
2017-11-04T03:14:47.558Z,5.68
2017-11-04T03:14:48.159Z,5.66
2017-11-04T03:15:42.660Z,5.67
2017-11-04T03:15:43.236Z,5.66
2017-11-04T03:15:43.834Z,5.71
2017-11-04T03:15:44.434Z,5.67
2017-11-04T03:15:45.033Z,5.71
2017-11-04T03:15:45.633Z,5.67
2017-11-04T03:15:46.232Z,5.78
2017-11-04T03:15:46.834Z,5.68
2017-11-04T03:16:41.336Z,5.71
2017-11-04T03:16:41.910Z,5.74
2017-11-04T03:16:42.509Z,5.70
2017-11-04T03:16:43.109Z,5.70
2017-11-04T03:16:43.708Z,5.67
2017-11-04T03:16:44.308Z,5.71
2017-11-04T03:16:44.910Z,5.71
2017-11-04T03:16:45.508Z,5.71
2017-11-04T03:17:40.011Z,5.73
2017-11-04T03:17:40.586Z,5.70
2017-11-04T03:17:41.185Z,5.71
2017-11-04T03:17:41.786Z,5.56
2017-11-04T03:17:42.386Z,5.78
2017-11-04T03:17:42.985Z,5.81
2017-11-04T03:17:43.584Z,5.71
2017-11-04T03:17:44.187Z,5.67
2017-11-04T03:18:37.661Z,5.71
2017-11-04T03:18:38.238Z,5.70
2017-11-04T03:18:38.838Z,5.67
2017-11-04T03:18:39.437Z,5.71
2017-11-04T03:18:40.038Z,5.66
2017-11-04T03:18:40.638Z,5.64
2017-11-04T03:18:41.238Z,5.71
2017-11-04T03:18:41.838Z,5.71
2017-11-04T03:19:35.316Z,5.74
2017-11-04T03:19:35.889Z,5.77
2017-11-04T03:19:36.490Z,5.75
2017-11-04T03:19:37.090Z,5.83
2017-11-04T03:19:37.689Z,5.71
2017-11-04T03:19:38.298Z,5.78
2017-11-04T03:19:38.890Z,5.78
2017-11-04T03:19:39.493Z,5.82
2017-11-04T03:20:34.004Z,5.82
2017-11-04T03:20:34.569Z,5.71
2017-11-04T03:20:35.165Z,5.74
2017-11-04T03:20:35.767Z,5.74
2017-11-04T03:20:36.365Z,5.73
2017-11-04T03:20:36.965Z,5.88
2017-11-04T03:20:37.564Z,5.75
2017-11-04T03:20:38.165Z,5.77
2017-11-04T03:21:32.666Z,5.71
2017-11-04T03:21:33.240Z,5.74
2017-11-04T03:21:33.840Z,5.81
2017-11-04T03:21:34.440Z,5.75
2017-11-04T03:21:35.040Z,5.78
2017-11-04T03:21:35.640Z,5.73
2017-11-04T03:21:36.252Z,5.85
2017-11-04T03:21:36.839Z,5.75
2017-11-04T03:22:31.341Z,5.74
2017-11-04T03:22:31.916Z,5.81
2017-11-04T03:22:32.516Z,5.77
2017-11-04T03:22:33.116Z,5.77
2017-11-04T03:22:33.715Z,5.75
2017-11-04T03:22:34.318Z,5.77
2017-11-04T03:22:34.915Z,5.75
2017-11-04T03:22:35.516Z,5.73
2017-11-04T03:23:28.994Z,5.85
2017-11-04T03:23:29.569Z,5.88
2017-11-04T03:23:30.168Z,5.78
2017-11-04T03:23:30.768Z,5.85
2017-11-04T03:23:31.367Z,5.86
2017-11-04T03:23:31.968Z,5.78
2017-11-04T03:23:32.568Z,5.88
2017-11-04T03:23:33.168Z,5.88
2017-11-04T03:24:27.669Z,5.86
2017-11-04T03:24:28.243Z,5.85
2017-11-04T03:24:28.850Z,5.88
2017-11-04T03:24:29.443Z,5.83
2017-11-04T03:24:30.043Z,5.83
2017-11-04T03:24:30.646Z,5.85
2017-11-04T03:24:31.241Z,5.85
2017-11-04T03:24:31.841Z,5.89
2017-11-04T03:25:26.344Z,5.89
2017-11-04T03:25:26.919Z,5.88
2017-11-04T03:25:27.519Z,5.89
2017-11-04T03:25:28.120Z,5.91
2017-11-04T03:25:28.719Z,5.91
2017-11-04T03:25:29.318Z,5.82
2017-11-04T03:25:29.918Z,5.81
2017-11-04T03:25:30.519Z,5.85
2017-11-04T03:26:23.997Z,5.91
2017-11-04T03:26:24.572Z,5.83
2017-11-04T03:26:25.172Z,5.92
2017-11-04T03:26:25.772Z,6.01
2017-11-04T03:26:26.371Z,5.98
2017-11-04T03:26:26.971Z,5.91
2017-11-04T03:26:27.572Z,5.82
2017-11-04T03:26:28.171Z,5.88
2017-11-04T03:27:22.672Z,5.93
2017-11-04T03:27:23.246Z,5.96
2017-11-04T03:27:23.846Z,5.96
2017-11-04T03:27:24.445Z,6.00
2017-11-04T03:27:25.045Z,5.92
2017-11-04T03:27:25.646Z,5.98
2017-11-04T03:27:26.244Z,5.92
2017-11-04T03:27:26.846Z,5.96
2017-11-04T03:28:20.325Z,6.01
2017-11-04T03:28:20.899Z,5.93
2017-11-04T03:28:21.498Z,6.03
2017-11-04T03:28:22.098Z,6.00
2017-11-04T03:28:22.698Z,5.98
2017-11-04T03:28:23.297Z,5.96
2017-11-04T03:28:23.898Z,5.93
2017-11-04T03:28:24.498Z,5.98
2017-11-04T03:29:17.979Z,5.95
2017-11-04T03:29:18.549Z,6.03
2017-11-04T03:29:19.149Z,5.95
2017-11-04T03:29:19.749Z,5.96
2017-11-04T03:29:20.350Z,6.01
2017-11-04T03:29:20.949Z,6.01
2017-11-04T03:29:21.549Z,5.95